createdAt,value
2019-05-10T00:00:40.128Z,86.33
2019-05-10T00:03:27.638Z,86.54
2019-05-10T00:06:14.041Z,86.76
2019-05-10T00:08:44.959Z,86.81
2019-05-10T00:11:20.167Z,85.53
2019-05-10T00:13:59.389Z,85.16
2019-05-10T00:16:28.110Z,86.25
2019-05-10T00:18:56.788Z,86.40
2019-05-10T00:21:25.472Z,86.31
2019-05-10T00:23:54.162Z,86.40
2019-05-10T00:26:22.868Z,86.31
2019-05-10T00:28:51.642Z,85.81
2019-05-10T00:31:20.311Z,85.43
2019-05-10T00:33:48.988Z,85.64
2019-05-10T00:36:17.683Z,85.61
2019-05-10T00:38:46.383Z,85.34
2019-05-10T00:41:15.056Z,85.39
2019-05-10T00:43:43.735Z,85.53
2019-05-10T00:46:12.422Z,85.81
2019-05-10T00:48:41.106Z,85.76
2019-05-10T00:51:09.810Z,84.99
2019-05-10T00:53:38.487Z,85.04
2019-05-10T00:56:07.157Z,85.15
2019-05-10T00:58:35.833Z,85.47
2019-05-10T01:01:04.723Z,85.49
2019-05-10T01:03:33.412Z,85.00
2019-05-10T01:06:02.116Z,84.95
2019-05-10T01:08:30.865Z,85.52
2019-05-10T01:10:59.550Z,85.47
2019-05-10T01:13:28.237Z,86.03
2019-05-10T01:15:56.928Z,86.38
2019-05-10T01:18:25.619Z,87.48
2019-05-10T01:20:54.304Z,87.33
2019-05-10T01:23:22.992Z,86.80
2019-05-10T01:25:51.678Z,86.67
2019-05-10T01:28:20.350Z,87.46
2019-05-10T01:30:49.172Z,86.88
2019-05-10T01:33:17.887Z,86.57
2019-05-10T01:35:46.566Z,87.62
2019-05-10T01:38:15.242Z,87.53
2019-05-10T01:40:43.957Z,87.26
2019-05-10T01:43:12.649Z,87.72
2019-05-10T01:45:41.431Z,87.65
2019-05-10T01:48:10.122Z,86.95
2019-05-10T01:50:38.810Z,85.83
2019-05-10T01:53:07.801Z,85.29
2019-05-10T01:55:50.913Z,85.14
2019-05-10T01:58:06.887Z,85.11
2019-05-10T02:00:35.596Z,84.81
2019-05-10T02:03:04.296Z,84.52
2019-05-10T02:05:33.002Z,85.15
2019-05-10T02:08:01.689Z,84.15
2019-05-10T02:10:30.479Z,84.79
2019-05-10T02:12:59.152Z,84.39
2019-05-10T02:15:27.898Z,84.56
2019-05-10T02:17:56.538Z,84.92
2019-05-10T02:20:25.267Z,84.67
2019-05-10T02:22:53.942Z,84.24
2019-05-10T02:25:22.615Z,83.53
2019-05-10T02:27:51.295Z,84.10
2019-05-10T02:30:20.186Z,84.32
2019-05-10T02:32:48.864Z,83.92
2019-05-10T02:35:17.633Z,84.31
2019-05-10T02:37:46.315Z,85.11
2019-05-10T02:40:15.782Z,85.44
2019-05-10T02:42:44.479Z,85.27
2019-05-10T02:45:14.053Z,85.53
2019-05-10T02:47:42.737Z,85.38
2019-05-10T02:50:11.633Z,85.35
2019-05-10T02:52:40.392Z,85.02
2019-05-10T02:55:10.546Z,85.21
2019-05-10T02:57:39.745Z,85.60
2019-05-10T03:00:09.239Z,85.63
2019-05-10T03:02:38.026Z,85.94
2019-05-10T03:05:07.942Z,86.17
2019-05-10T03:07:40.032Z,86.37
2019-05-10T03:10:10.825Z,86.78
2019-05-10T03:12:42.495Z,86.97
2019-05-10T03:15:12.476Z,86.88
2019-05-10T03:17:41.877Z,86.99
2019-05-10T03:20:12.190Z,87.65
2019-05-10T03:22:44.506Z,87.39
2019-05-10T03:25:13.864Z,87.41
2019-05-10T03:27:42.546Z,87.85
2019-05-10T03:30:11.289Z,88.07
2019-05-10T03:32:40.134Z,87.87
2019-05-10T03:35:09.973Z,87.43
2019-05-10T03:37:38.853Z,87.72
2019-05-10T03:40:09.155Z,87.50
2019-05-10T03:42:37.944Z,87.89
2019-05-10T03:45:08.110Z,87.05
2019-05-10T03:47:36.793Z,86.78
2019-05-10T03:50:07.579Z,86.70
2019-05-10T03:52:36.261Z,86.47
2019-05-10T03:55:06.189Z,85.94
2019-05-10T03:57:34.824Z,86.21
2019-05-10T04:00:04.950Z,86.44
2019-05-10T04:02:33.649Z,86.95
2019-05-10T04:05:02.336Z,87.31
2019-05-10T04:07:31.013Z,87.35
2019-05-10T04:09:59.710Z,86.88
2019-05-10T04:12:28.472Z,86.52
2019-05-10T04:14:57.203Z,85.65
2019-05-10T04:17:25.890Z,84.96
2019-05-10T04:19:54.581Z,84.32
2019-05-10T04:22:23.268Z,82.59
2019-05-10T04:24:51.988Z,80.68
2019-05-10T04:27:31.573Z,80.24
2019-05-10T04:29:51.106Z,79.61
2019-05-10T04:32:19.812Z,79.02
2019-05-10T04:34:48.501Z,78.17
2019-05-10T04:37:17.168Z,77.66
2019-05-10T04:39:45.862Z,78.39
2019-05-10T04:42:14.648Z,77.66
2019-05-10T04:44:43.527Z,75.91
2019-05-10T04:47:12.471Z,75.90
2019-05-10T04:49:41.272Z,73.71
2019-05-10T04:52:10.008Z,74.10
2019-05-10T04:54:38.951Z,74.22
2019-05-10T04:57:07.762Z,75.50
2019-05-10T04:59:36.536Z,76.21
2019-05-10T05:02:05.344Z,76.57
2019-05-10T05:04:34.398Z,76.71
2019-05-10T05:07:03.458Z,77.11
2019-05-10T05:09:32.316Z,78.12
2019-05-10T05:12:01.083Z,78.83
2019-05-10T05:14:29.906Z,80.20
2019-05-10T05:16:58.663Z,80.33
2019-05-10T05:19:27.309Z,80.08
2019-05-10T05:21:56.203Z,80.87
2019-05-10T05:24:24.902Z,80.62
2019-05-10T05:26:53.878Z,81.79
2019-05-10T05:29:22.556Z,81.93
2019-05-10T05:31:53.995Z,82.28
2019-05-10T05:34:21.648Z,82.37
2019-05-10T05:36:50.527Z,83.02
2019-05-10T05:39:19.210Z,82.59
2019-05-10T05:41:49.711Z,83.16
2019-05-10T05:44:20.369Z,81.09
2019-05-10T05:46:48.868Z,81.29
2019-05-10T05:49:17.527Z,80.36
2019-05-10T05:51:46.264Z,79.74
2019-05-10T05:54:20.081Z,81.19
2019-05-10T05:56:50.764Z,78.72
2019-05-10T05:59:17.451Z,80.02
2019-05-10T06:01:46.404Z,79.19
2019-05-10T06:04:15.109Z,78.18
2019-05-10T06:06:43.789Z,79.89
2019-05-10T06:09:12.488Z,78.09
2019-05-10T06:11:41.170Z,77.43
2019-05-10T06:14:12.516Z,77.00
2019-05-10T06:16:44.953Z,77.58
2019-05-10T06:19:11.063Z,76.66
2019-05-10T06:21:39.735Z,76.40
2019-05-10T06:24:13.314Z,76.35
2019-05-10T06:26:39.070Z,75.98
2019-05-10T06:29:16.115Z,77.68
2019-05-10T06:31:38.238Z,74.97
2019-05-10T06:34:06.903Z,75.88
2019-05-10T06:36:35.582Z,74.97
2019-05-10T06:39:07.008Z,73.23
2019-05-10T06:41:35.677Z,72.48
2019-05-10T06:44:04.759Z,70.01
2019-05-10T06:46:33.599Z,71.78
2019-05-10T06:49:08.610Z,70.97
2019-05-10T06:51:34.167Z,69.02
2019-05-10T06:54:02.932Z,69.21
2019-05-10T06:56:32.087Z,69.63
2019-05-10T06:59:13.135Z,70.73
2019-05-10T07:01:32.034Z,72.87
2019-05-10T07:04:00.801Z,71.67
2019-05-10T07:06:29.540Z,71.44
2019-05-10T07:08:59.524Z,72.26
2019-05-10T07:11:28.764Z,72.77
2019-05-10T07:13:57.497Z,72.82
2019-05-10T07:16:26.342Z,72.04
2019-05-10T07:19:00.603Z,72.28
2019-05-10T07:21:25.541Z,71.97
2019-05-10T07:23:54.235Z,71.83
2019-05-10T07:26:26.311Z,72.29
2019-05-10T07:28:59.360Z,70.79
2019-05-10T07:31:27.126Z,69.49
2019-05-10T07:33:55.838Z,66.82
2019-05-10T07:36:27.199Z,60.88
2019-05-10T07:38:55.038Z,60.72
2019-05-10T07:41:26.804Z,60.11
2019-05-10T07:44:00.906Z,55.04
2019-05-10T07:46:24.576Z,54.38
2019-05-10T07:48:53.898Z,58.58
2019-05-10T07:51:28.511Z,59.16
2019-05-10T07:53:56.968Z,57.76
2019-05-10T07:56:24.301Z,58.01
2019-05-10T07:58:52.986Z,59.86
2019-05-10T08:01:31.845Z,60.62
2019-05-10T08:03:52.589Z,61.15
2019-05-10T08:06:23.868Z,62.34
2019-05-10T08:08:55.423Z,62.57
2019-05-10T08:11:24.533Z,63.20
2019-05-10T08:13:57.808Z,65.18
2019-05-10T08:16:23.712Z,66.06
2019-05-10T08:18:55.627Z,67.35
2019-05-10T08:21:26.265Z,68.95
2019-05-10T08:23:54.082Z,70.11
2019-05-10T08:26:24.848Z,71.53
2019-05-10T08:28:53.617Z,70.10
2019-05-10T08:31:25.972Z,70.00
2019-05-10T08:33:58.358Z,68.33
2019-05-10T08:36:23.124Z,67.90
2019-05-10T08:39:05.153Z,68.31
2019-05-10T08:41:22.495Z,67.76
2019-05-10T08:43:52.569Z,65.78
2019-05-10T08:46:29.123Z,65.75
2019-05-10T08:48:53.834Z,62.25
2019-05-10T08:51:22.938Z,59.68
2019-05-10T08:53:53.430Z,60.07
2019-05-10T08:56:24.161Z,59.75
2019-05-10T08:58:53.561Z,60.52
2019-05-10T09:01:29.650Z,61.63
2019-05-10T09:03:59.327Z,62.92
2019-05-10T09:06:23.433Z,61.73
2019-05-10T09:09:01.374Z,57.28
2019-05-10T09:11:23.236Z,54.71
2019-05-10T09:13:53.405Z,53.16
2019-05-10T09:16:29.153Z,53.02
2019-05-10T09:18:54.794Z,50.92
2019-05-10T09:21:23.515Z,49.38
2019-05-10T09:24:01.137Z,50.14
2019-05-10T09:26:23.089Z,49.17
2019-05-10T09:28:55.585Z,48.70
2019-05-10T09:31:25.534Z,49.51
2019-05-10T09:33:54.349Z,49.83
2019-05-10T09:36:30.973Z,46.29
2019-05-10T09:38:55.373Z,44.48
2019-05-10T09:41:27.581Z,41.66
2019-05-10T09:43:54.745Z,39.71
2019-05-10T09:46:23.506Z,39.17
2019-05-10T09:48:54.771Z,38.45
2019-05-10T09:51:27.992Z,39.53
2019-05-10T09:53:57.633Z,40.92
2019-05-10T09:56:27.594Z,43.13
2019-05-10T09:58:58.220Z,43.28
2019-05-10T10:01:28.212Z,43.95
2019-05-10T10:03:58.320Z,45.50
2019-05-10T10:06:29.699Z,47.72
2019-05-10T10:09:00.924Z,48.61
2019-05-10T10:11:30.035Z,47.46
2019-05-10T10:14:01.831Z,48.04
2019-05-10T10:16:29.281Z,45.92
2019-05-10T10:18:58.080Z,38.74
2019-05-10T10:21:31.483Z,38.60
2019-05-10T10:24:00.306Z,39.90
2019-05-10T10:26:27.795Z,42.25
2019-05-10T10:28:57.857Z,44.00
2019-05-10T10:31:33.314Z,45.12
2019-05-10T10:34:02.679Z,44.88
2019-05-10T10:36:30.035Z,45.64
2019-05-10T10:38:59.631Z,45.32
2019-05-10T10:41:31.707Z,46.56
2019-05-10T10:43:58.859Z,45.25
2019-05-10T10:46:34.510Z,44.53
2019-05-10T10:49:02.101Z,41.72
2019-05-10T10:51:32.422Z,41.24
2019-05-10T10:54:01.606Z,41.14
2019-05-10T10:56:30.508Z,43.65
2019-05-10T10:58:59.276Z,45.49
2019-05-10T11:01:33.219Z,45.75
2019-05-10T11:04:03.501Z,46.07
2019-05-10T11:06:28.997Z,46.98
2019-05-10T11:08:57.968Z,47.93
2019-05-10T11:11:30.477Z,49.30
2019-05-10T11:14:03.476Z,51.34
2019-05-10T11:16:27.483Z,50.95
2019-05-10T11:18:56.200Z,50.59
2019-05-10T11:21:28.601Z,50.36
2019-05-10T11:23:55.310Z,50.30
2019-05-10T11:26:26.882Z,49.98
2019-05-10T11:28:54.654Z,49.15
2019-05-10T11:31:24.314Z,48.71
2019-05-10T11:33:58.512Z,49.10
2019-05-10T11:36:23.508Z,49.74
2019-05-10T11:38:58.310Z,51.16
2019-05-10T11:41:24.571Z,49.45
2019-05-10T11:43:57.812Z,47.87
2019-05-10T11:46:23.769Z,47.97
2019-05-10T11:48:52.502Z,47.73
2019-05-10T11:51:21.438Z,46.24
2019-05-10T11:53:55.438Z,46.25
2019-05-10T11:56:26.825Z,40.70
2019-05-10T11:58:55.364Z,41.04
2019-05-10T12:01:24.495Z,38.53
2019-05-10T12:03:53.595Z,38.72
2019-05-10T12:06:22.257Z,34.49
2019-05-10T12:08:56.849Z,36.78
2019-05-10T12:11:33.010Z,37.68
2019-05-10T12:13:57.233Z,35.23
2019-05-10T12:16:24.133Z,35.58
2019-05-10T12:19:17.068Z,33.90
2019-05-10T12:21:23.292Z,31.45
2019-05-10T12:23:56.350Z,27.97
2019-05-10T12:28:52.968Z,25.35
2019-05-10T12:31:23.314Z,25.33
2019-05-10T12:33:52.325Z,26.12
2019-05-10T12:36:27.336Z,26.24
2019-05-10T12:38:56.017Z,25.58
2019-05-10T12:41:24.069Z,28.95
2019-05-10T12:44:02.852Z,27.73
2019-05-10T12:46:23.513Z,26.60
2019-05-10T12:48:52.185Z,26.97
2019-05-10T12:51:21.205Z,26.84
2019-05-10T12:53:52.084Z,27.22
2019-05-10T12:56:20.673Z,29.61
2019-05-10T12:58:56.821Z,32.80
2019-05-10T13:01:25.558Z,33.88
2019-05-10T13:06:26.761Z,28.43
2019-05-10T13:08:55.949Z,28.17
2019-05-10T13:11:26.993Z,26.95
2019-05-10T13:13:55.659Z,25.42
2019-05-10T13:16:24.335Z,27.72
2019-05-10T13:18:53.034Z,26.01
2019-05-10T13:21:23.156Z,28.27
2019-05-10T13:23:53.876Z,28.18
2019-05-10T13:26:22.605Z,28.72
2019-05-10T13:28:51.353Z,28.84
2019-05-10T13:31:20.218Z,30.04
2019-05-10T13:33:48.941Z,31.85
2019-05-10T13:36:17.773Z,32.79
2019-05-10T13:38:49.202Z,36.19
2019-05-10T13:41:17.935Z,34.00
2019-05-10T13:43:47.439Z,30.04
2019-05-10T13:46:16.309Z,28.67
2019-05-10T13:48:45.051Z,28.20
2019-05-10T13:51:13.940Z,31.13
2019-05-10T13:53:42.615Z,31.13
2019-05-10T13:56:11.327Z,29.35
2019-05-10T13:58:41.407Z,28.33
2019-05-10T14:01:13.174Z,27.52
2019-05-10T14:03:45.259Z,25.52
2019-05-10T14:06:11.159Z,24.80
2019-05-10T14:08:42.789Z,28.64
2019-05-10T14:11:10.368Z,30.78
2019-05-10T14:13:41.391Z,33.24
2019-05-10T14:16:18.238Z,35.22
2019-05-10T14:18:39.932Z,36.84
2019-05-10T14:21:08.728Z,37.47
2019-05-10T14:23:39.348Z,35.01
2019-05-10T14:26:09.122Z,32.51
2019-05-10T14:28:38.469Z,33.51
2019-05-10T14:31:07.536Z,35.96
2019-05-10T14:33:36.290Z,36.04
2019-05-10T14:36:05.162Z,34.46
2019-05-10T14:38:34.011Z,31.42
2019-05-10T14:41:04.225Z,30.75
2019-05-10T14:43:33.128Z,30.87
2019-05-10T14:46:01.829Z,29.50
2019-05-10T14:48:32.024Z,31.01
2019-05-10T14:51:02.985Z,31.02
2019-05-10T14:53:31.413Z,31.57
2019-05-10T14:56:00.138Z,32.21
2019-05-10T14:58:28.807Z,33.21
2019-05-10T15:00:57.566Z,31.34
2019-05-10T15:03:26.260Z,33.03
2019-05-10T15:06:00.824Z,33.26
2019-05-10T15:08:25.338Z,35.18
2019-05-10T15:10:57.039Z,36.15
2019-05-10T15:13:26.021Z,37.02
2019-05-10T15:15:54.822Z,36.55
2019-05-10T15:18:23.540Z,37.15
2019-05-10T15:20:52.437Z,36.96
2019-05-10T15:23:21.086Z,37.02
2019-05-10T15:25:57.235Z,36.31
2019-05-10T15:28:20.161Z,36.10
2019-05-10T15:30:52.367Z,36.27
2019-05-10T15:33:19.234Z,37.21
2019-05-10T15:35:51.727Z,38.59
2019-05-10T15:38:18.426Z,40.27
2019-05-10T15:40:47.098Z,41.38
2019-05-10T15:43:16.973Z,41.46
2019-05-10T15:45:52.695Z,42.20
2019-05-10T15:48:16.963Z,42.66
2019-05-10T15:50:45.673Z,42.42
2019-05-10T15:53:19.350Z,42.63
2019-05-10T15:55:44.790Z,43.05
2019-05-10T15:58:13.474Z,42.56
2019-05-10T16:00:42.136Z,42.79
2019-05-10T16:03:10.798Z,43.43
2019-05-10T16:05:43.391Z,44.12
2019-05-10T16:08:13.383Z,44.49
2019-05-10T16:10:41.003Z,45.42
2019-05-10T16:13:14.535Z,45.23
2019-05-10T16:15:40.224Z,44.98
2019-05-10T16:18:08.992Z,45.54
2019-05-10T16:20:39.038Z,46.43
2019-05-10T16:23:09.153Z,46.93
2019-05-10T16:25:42.705Z,46.45
2019-05-10T16:28:08.700Z,47.14
2019-05-10T16:30:37.397Z,47.08
2019-05-10T16:33:09.784Z,48.03
2019-05-10T16:35:38.911Z,48.02
2019-05-10T16:38:07.051Z,48.66
2019-05-10T16:40:35.808Z,48.34
2019-05-10T16:43:06.696Z,49.22
2019-05-10T16:45:34.953Z,49.19
2019-05-10T16:48:05.995Z,49.16
2019-05-10T16:50:34.024Z,49.48
2019-05-10T16:53:05.642Z,49.41
2019-05-10T16:55:35.531Z,50.55
2019-05-10T16:58:03.545Z,50.44
2019-05-10T17:00:32.274Z,51.81
2019-05-10T17:03:00.962Z,50.91
2019-05-10T17:05:29.746Z,51.11
2019-05-10T17:07:59.084Z,50.99
2019-05-10T17:10:32.870Z,51.04
2019-05-10T17:13:04.743Z,50.78
2019-05-10T17:15:33.746Z,50.11
2019-05-10T17:18:00.211Z,50.40
2019-05-10T17:20:28.891Z,50.88
2019-05-10T17:23:07.981Z,51.40
2019-05-10T17:25:27.973Z,52.01
2019-05-10T17:27:59.836Z,51.21
2019-05-10T17:30:27.766Z,51.76
2019-05-10T17:32:57.692Z,52.79
2019-05-10T17:35:27.097Z,52.30
2019-05-10T17:37:55.771Z,52.17
2019-05-10T17:40:24.448Z,52.89
2019-05-10T17:42:53.124Z,51.58
2019-05-10T17:45:21.796Z,52.45
2019-05-10T17:47:50.484Z,51.80
2019-05-10T17:50:19.705Z,51.12
2019-05-10T17:52:48.372Z,50.83
2019-05-10T17:55:18.540Z,51.45
2019-05-10T17:57:48.752Z,50.65
2019-05-10T18:00:18.195Z,51.31
2019-05-10T18:02:46.890Z,51.40
2019-05-10T18:05:15.885Z,50.73
2019-05-10T18:07:44.571Z,51.07
2019-05-10T18:10:13.572Z,50.59
2019-05-10T18:12:42.226Z,50.65
2019-05-10T18:15:11.331Z,51.20
2019-05-10T18:17:39.995Z,51.22
2019-05-10T18:20:09.471Z,51.10
2019-05-10T18:22:43.058Z,50.15
2019-05-10T18:25:19.342Z,50.37
2019-05-10T18:27:39.015Z,51.24
2019-05-10T18:30:08.394Z,51.34
2019-05-10T18:32:37.265Z,51.18
2019-05-10T18:35:14.257Z,51.80
2019-05-10T18:37:37.897Z,52.07
2019-05-10T18:40:08.172Z,51.53
2019-05-10T18:42:36.835Z,51.99
2019-05-10T18:45:08.599Z,51.90
2019-05-10T18:47:37.309Z,52.53
2019-05-10T18:50:06.683Z,52.74
2019-05-10T18:52:35.351Z,52.27
2019-05-10T18:55:04.627Z,52.25
2019-05-10T18:57:33.287Z,52.60
2019-05-10T19:00:02.100Z,52.79
2019-05-10T19:02:30.820Z,52.48
2019-05-10T19:04:59.501Z,52.27
2019-05-10T19:07:28.194Z,52.28
2019-05-10T19:09:56.849Z,52.22
2019-05-10T19:12:25.924Z,52.55
2019-05-10T19:14:54.877Z,53.50
2019-05-10T19:17:23.568Z,53.21
2019-05-10T19:19:52.235Z,53.07
2019-05-10T19:22:20.904Z,53.77
2019-05-10T19:24:49.570Z,53.98
2019-05-10T19:27:18.245Z,54.29
2019-05-10T19:29:47.929Z,53.60
2019-05-10T19:32:17.954Z,53.79
2019-05-10T19:34:47.776Z,54.49
2019-05-10T19:37:29.693Z,54.52
2019-05-10T19:39:47.825Z,54.15
2019-05-10T19:42:16.500Z,54.20
2019-05-10T19:44:45.167Z,54.58
2019-05-10T19:47:17.699Z,54.61
2019-05-10T19:49:45.732Z,54.83
2019-05-10T19:52:14.626Z,54.83
2019-05-10T19:54:43.293Z,54.38
2019-05-10T19:57:16.186Z,54.36
2019-05-10T19:59:43.963Z,54.70
2019-05-10T20:02:12.752Z,55.45
2019-05-10T20:04:41.423Z,56.41
2019-05-10T20:07:10.103Z,55.52
2019-05-10T20:09:38.766Z,55.57
2019-05-10T20:12:07.501Z,55.99
2019-05-10T20:14:36.146Z,56.10
2019-05-10T20:17:05.075Z,56.15
2019-05-10T20:19:33.765Z,56.38
2019-05-10T20:22:02.845Z,56.52
2019-05-10T20:24:31.529Z,56.63
2019-05-10T20:27:00.194Z,57.86
2019-05-10T20:29:28.864Z,58.65
2019-05-10T20:31:57.541Z,57.95
2019-05-10T20:34:26.223Z,57.91
2019-05-10T20:36:54.885Z,58.15
2019-05-10T20:39:23.812Z,58.77
2019-05-10T20:41:52.466Z,58.36
2019-05-10T20:44:21.324Z,58.65
2019-05-10T20:46:49.945Z,58.38
2019-05-10T20:49:18.606Z,58.59
2019-05-10T20:51:47.286Z,58.71
2019-05-10T20:54:15.955Z,58.07
2019-05-10T20:56:44.631Z,58.63
2019-05-10T20:59:13.292Z,58.63
2019-05-10T21:01:42.074Z,58.29
2019-05-10T21:04:10.761Z,58.27
2019-05-10T21:06:39.484Z,58.70
2019-05-10T21:09:08.160Z,58.71
2019-05-10T21:11:36.852Z,58.52
2019-05-10T21:14:05.624Z,58.01
2019-05-10T21:16:34.311Z,58.14
2019-05-10T21:19:03.012Z,57.81
2019-05-10T21:21:31.657Z,58.19
2019-05-10T21:24:00.498Z,58.86
2019-05-10T21:26:29.167Z,58.90
2019-05-10T21:28:57.841Z,58.49
2019-05-10T21:31:26.509Z,58.84
2019-05-10T21:34:08.510Z,59.09
2019-05-10T21:36:25.578Z,58.92
2019-05-10T21:38:54.268Z,59.37
2019-05-10T21:41:22.958Z,59.15
2019-05-10T21:43:51.652Z,59.65
2019-05-10T21:46:20.581Z,59.76
2019-05-10T21:48:49.258Z,59.90
2019-05-10T21:51:17.924Z,59.98
2019-05-10T21:53:46.618Z,60.13
2019-05-10T21:56:15.290Z,60.37
2019-05-10T21:58:43.986Z,60.16
2019-05-10T22:01:13.050Z,60.11
2019-05-10T22:03:41.765Z,60.49
2019-05-10T22:06:10.428Z,60.29
2019-05-10T22:08:49.129Z,60.86
2019-05-10T22:11:09.493Z,60.45
2019-05-10T22:13:38.172Z,60.92
2019-05-10T22:16:06.848Z,60.92
2019-05-10T22:18:37.087Z,61.52
2019-05-10T22:21:05.760Z,61.96
2019-05-10T22:23:34.464Z,62.59
2019-05-10T22:26:03.130Z,63.10
2019-05-10T22:28:31.802Z,62.60
2019-05-10T22:31:00.475Z,61.75
2019-05-10T22:33:29.143Z,62.40
2019-05-10T22:35:57.797Z,62.07
2019-05-10T22:38:26.523Z,62.41
2019-05-10T22:40:55.203Z,62.37
2019-05-10T22:43:23.927Z,61.83
2019-05-10T22:45:52.593Z,62.51
2019-05-10T22:48:21.274Z,61.52
2019-05-10T22:50:50.200Z,61.75
2019-05-10T22:53:18.858Z,61.04
2019-05-10T22:55:47.541Z,61.44
2019-05-10T22:58:16.205Z,61.04
2019-05-10T23:00:44.872Z,60.83
2019-05-10T23:03:13.533Z,61.45
2019-05-10T23:05:42.210Z,61.16
2019-05-10T23:08:10.879Z,61.77
2019-05-10T23:10:39.568Z,61.22
2019-05-10T23:13:08.220Z,61.45
2019-05-10T23:15:37.391Z,61.52
2019-05-10T23:18:06.079Z,61.71
2019-05-10T23:20:34.759Z,62.06
2019-05-10T23:23:03.439Z,61.87
2019-05-10T23:25:32.736Z,61.35
2019-05-10T23:28:01.417Z,61.66
2019-05-10T23:30:30.096Z,61.11
2019-05-10T23:32:58.963Z,61.45
2019-05-10T23:35:27.819Z,63.59
2019-05-10T23:37:56.647Z,61.62
2019-05-10T23:40:25.482Z,62.33
2019-05-10T23:42:54.294Z,61.47
2019-05-10T23:45:23.121Z,61.50
2019-05-10T23:47:51.968Z,62.44
2019-05-10T23:50:20.819Z,61.43
2019-05-10T23:52:49.652Z,61.95
2019-05-10T23:55:18.934Z,62.51
2019-05-10T23:57:47.878Z,61.67
